Tunica, Mississippi
Current Conditions -  °F | °C
As of 12:15 PM on Thursday 30 Oct 2014 (Local Time) from KUTA Reporting Station
Haze Haze  
Wind Chill: 64°   Ceiling: 700
Heat Index: 64°   Visibility: 1.2mi
Dew Point: 32°   Wind: 0mph
Humidity: 30%   Direction: NA
Pressure: 30.15"   Gusts: NA
Location:  34.68°N, 90.38°W
Report Text: KUTA 301715Z AUTO 00000KT 1 1/4SM HZ VV007 18/00 A3015 RMK AO2
Loading
Personal Weather Stations






























Interactive Weather Map
Tropical Storm Tracking
New forecast layout! Learn more

10-Day Weather Forecast

Advertisements
Track Severe Weather on mobile